createdAt,value
2019-03-08T00:02:40.392Z,6.40
2019-03-08T00:07:47.647Z,6.40
2019-03-08T00:12:56.717Z,6.40
2019-03-08T00:18:04.109Z,6.30
2019-03-08T00:23:11.351Z,6.30
2019-03-08T00:28:18.820Z,6.30
2019-03-08T00:33:25.974Z,6.40
2019-03-08T00:38:33.156Z,6.30
2019-03-08T00:43:40.444Z,6.30
2019-03-08T00:48:47.755Z,6.30
2019-03-08T00:53:55.024Z,6.30
2019-03-08T00:59:03.647Z,6.30
2019-03-08T01:04:11.231Z,6.30
2019-03-08T01:09:18.830Z,6.20
2019-03-08T01:14:26.510Z,6.30
2019-03-08T01:19:34.022Z,6.30
2019-03-08T01:24:41.299Z,6.20
2019-03-08T01:29:48.649Z,6.10
2019-03-08T01:34:57.182Z,6.10
2019-03-08T01:40:04.832Z,6.00
2019-03-08T01:45:12.956Z,5.90
2019-03-08T01:50:20.147Z,5.90
2019-03-08T01:55:27.411Z,5.90
2019-03-08T02:00:34.642Z,5.90
2019-03-08T02:05:41.980Z,5.80
2019-03-08T02:10:49.239Z,5.90
2019-03-08T02:15:56.909Z,5.90
2019-03-08T02:21:07.124Z,5.90
2019-03-08T02:26:13.266Z,6.00
2019-03-08T02:31:20.608Z,6.10
2019-03-08T02:36:27.998Z,6.00
2019-03-08T02:41:35.236Z,6.00
2019-03-08T02:46:43.075Z,6.00
2019-03-08T02:51:50.368Z,6.10
2019-03-08T02:56:57.503Z,6.20
2019-03-08T03:02:05.612Z,6.20
2019-03-08T03:07:12.994Z,6.10
2019-03-08T03:12:22.262Z,6.00
2019-03-08T03:17:29.454Z,6.00
2019-03-08T03:22:36.635Z,5.90
2019-03-08T03:27:44.478Z,5.90
2019-03-08T03:32:51.662Z,5.90
2019-03-08T03:37:58.959Z,5.90
2019-03-08T03:43:06.120Z,5.80
2019-03-08T03:48:13.290Z,5.80
2019-03-08T03:53:20.434Z,5.70
2019-03-08T03:58:27.634Z,5.60
2019-03-08T04:03:34.846Z,5.60
2019-03-08T04:08:42.000Z,5.60
2019-03-08T04:13:49.660Z,5.70
2019-03-08T04:18:56.805Z,5.60
2019-03-08T04:24:03.867Z,5.60
2019-03-08T04:29:10.946Z,5.60
2019-03-08T04:34:18.089Z,5.70
2019-03-08T04:39:25.243Z,5.60
2019-03-08T04:44:32.350Z,5.60
2019-03-08T04:49:39.480Z,5.50
2019-03-08T04:54:46.765Z,5.50
2019-03-08T04:59:54.156Z,5.60
2019-03-08T05:05:01.569Z,5.60
2019-03-08T05:10:10.640Z,5.60
2019-03-08T05:15:18.758Z,5.50
2019-03-08T05:20:25.947Z,5.60
2019-03-08T05:25:33.090Z,5.60
2019-03-08T05:30:40.319Z,5.50
2019-03-08T05:35:47.564Z,5.60
2019-03-08T05:40:54.701Z,5.60
2019-03-08T05:46:01.824Z,5.60
2019-03-08T05:51:10.148Z,5.70
2019-03-08T05:56:17.286Z,5.80
2019-03-08T06:01:24.456Z,5.90
2019-03-08T06:06:31.614Z,6.00
2019-03-08T06:11:38.776Z,6.10
2019-03-08T06:16:45.826Z,6.20
2019-03-08T06:21:54.294Z,6.20
2019-03-08T06:27:01.641Z,6.30
2019-03-08T06:32:08.863Z,6.50
2019-03-08T06:37:16.921Z,6.80
2019-03-08T06:42:24.590Z,6.90
2019-03-08T06:47:31.658Z,7.10
2019-03-08T06:52:39.199Z,7.20
2019-03-08T06:57:46.602Z,7.40
2019-03-08T07:02:53.759Z,7.40
2019-03-08T07:08:00.901Z,7.60
2019-03-08T07:13:09.266Z,7.70
2019-03-08T07:18:16.475Z,7.70
2019-03-08T07:23:48.704Z,7.70
2019-03-08T07:29:20.700Z,7.80
2019-03-08T07:34:47.627Z,7.90
2019-03-08T07:40:07.036Z,7.80
2019-03-08T07:45:45.271Z,7.70
2019-03-08T07:51:10.092Z,7.60
2019-03-08T07:56:36.080Z,7.60
2019-03-08T08:02:05.485Z,7.60
2019-03-08T08:07:28.890Z,7.60
2019-03-08T08:12:53.271Z,7.70
2019-03-08T08:18:19.249Z,7.70
2019-03-08T08:23:43.793Z,7.60
2019-03-08T08:29:00.754Z,7.60
2019-03-08T08:34:19.658Z,7.50
2019-03-08T08:39:41.064Z,7.40
2019-03-08T08:45:04.863Z,7.30
2019-03-08T08:50:27.539Z,7.10
2019-03-08T08:56:00.740Z,7.00
2019-03-08T09:01:25.947Z,6.80
2019-03-08T09:06:42.058Z,6.80
2019-03-08T09:12:07.386Z,6.80
2019-03-08T09:17:48.608Z,6.80
2019-03-08T09:23:17.802Z,6.80
2019-03-08T09:28:53.904Z,6.90
2019-03-08T09:34:10.718Z,7.10
2019-03-08T09:39:39.676Z,7.30
2019-03-08T09:45:00.700Z,7.60
2019-03-08T09:50:45.652Z,8.00
2019-03-08T09:56:10.448Z,8.10
2019-03-08T10:01:36.760Z,8.10
2019-03-08T10:06:52.462Z,7.90
2019-03-08T10:12:21.541Z,7.40
2019-03-08T10:17:33.774Z,6.80
2019-03-08T10:23:19.957Z,6.60
2019-03-08T10:28:51.920Z,6.60
2019-03-08T10:34:17.095Z,6.80
2019-03-08T10:39:51.939Z,6.80
2019-03-08T10:45:11.876Z,6.90
2019-03-08T10:50:40.778Z,6.90
2019-03-08T10:55:54.077Z,6.90
2019-03-08T11:01:15.768Z,6.80
2019-03-08T11:06:42.140Z,6.80
2019-03-08T11:12:20.572Z,6.70
2019-03-08T11:17:51.124Z,6.70
2019-03-08T11:23:35.377Z,6.60
2019-03-08T11:29:02.894Z,6.60
2019-03-08T11:34:38.982Z,6.50
2019-03-08T11:40:01.627Z,6.50
2019-03-08T11:45:30.173Z,6.50
2019-03-08T11:51:10.929Z,6.50
2019-03-08T11:56:41.186Z,6.50
2019-03-08T12:02:15.177Z,6.50
2019-03-08T12:07:43.957Z,6.50
2019-03-08T12:13:10.174Z,6.50
2019-03-08T12:18:42.081Z,6.40
2019-03-08T12:24:17.593Z,6.60
2019-03-08T12:29:37.576Z,6.60
2019-03-08T12:35:09.512Z,6.70
2019-03-08T12:40:42.098Z,6.70
2019-03-08T12:46:17.715Z,6.80
2019-03-08T12:51:49.522Z,6.60
2019-03-08T12:57:08.780Z,5.90
2019-03-08T13:02:48.441Z,5.40
2019-03-08T13:08:14.175Z,5.30
2019-03-08T13:13:21.542Z,5.30
2019-03-08T13:18:28.844Z,5.20
2019-03-08T13:23:36.024Z,5.20
2019-03-08T13:28:43.537Z,5.20
2019-03-08T13:33:51.307Z,5.20
2019-03-08T13:38:58.588Z,5.40
2019-03-08T13:44:07.944Z,5.80
2019-03-08T13:49:15.111Z,5.70
2019-03-08T13:54:22.459Z,5.50
2019-03-08T13:59:30.929Z,5.30
2019-03-08T14:04:38.051Z,5.00
2019-03-08T14:09:45.184Z,6.00
2019-03-08T14:14:52.704Z,5.80
2019-03-08T14:20:00.037Z,5.70
2019-03-08T14:25:07.600Z,5.80
2019-03-08T14:30:16.988Z,7.70
2019-03-08T14:35:26.021Z,7.70
2019-03-08T14:40:53.360Z,7.00
2019-03-08T14:46:11.358Z,6.70
2019-03-08T14:51:18.444Z,8.60
2019-03-08T14:56:26.164Z,7.80
2019-03-08T15:01:33.791Z,9.20
2019-03-08T15:06:40.884Z,9.70
2019-03-08T15:11:48.417Z,9.40
2019-03-08T15:16:55.539Z,9.50
2019-03-08T15:22:02.869Z,9.80
2019-03-08T15:27:10.057Z,10.20
2019-03-08T15:32:17.536Z,9.70
2019-03-08T15:37:24.658Z,8.70
2019-03-08T15:42:36.287Z,9.10
2019-03-08T15:47:41.171Z,7.70
2019-03-08T15:52:48.373Z,7.20
2019-03-08T15:57:57.960Z,6.80
2019-03-08T16:03:06.113Z,6.50
2019-03-08T16:08:16.300Z,6.30
2019-03-08T16:13:23.489Z,6.10
2019-03-08T16:18:31.846Z,6.00
2019-03-08T16:23:38.971Z,5.90
2019-03-08T16:28:46.490Z,5.90
2019-03-08T16:33:55.754Z,5.80
2019-03-08T16:39:22.736Z,5.90
2019-03-08T16:44:51.758Z,5.80
2019-03-08T16:50:07.689Z,5.80
2019-03-08T16:55:44.064Z,5.80
2019-03-08T17:01:00.952Z,5.80
2019-03-08T17:06:11.127Z,5.80
2019-03-08T17:11:40.672Z,5.70
2019-03-08T17:17:05.395Z,5.70
2019-03-08T17:22:37.738Z,5.70
2019-03-08T17:27:54.956Z,5.70
2019-03-08T17:33:26.229Z,5.60
2019-03-08T17:38:58.592Z,5.50
2019-03-08T17:44:21.526Z,5.50
2019-03-08T17:49:42.206Z,5.40
2019-03-08T17:54:58.001Z,5.60
2019-03-08T18:00:14.557Z,5.50
2019-03-08T18:05:43.593Z,5.60
2019-03-08T18:11:19.689Z,5.50
2019-03-08T18:16:37.800Z,5.50
2019-03-08T18:22:03.982Z,5.50
2019-03-08T18:27:22.340Z,5.50
2019-03-08T18:32:58.279Z,5.50
2019-03-08T18:38:26.163Z,5.50
2019-03-08T18:44:06.902Z,5.50
2019-03-08T18:49:38.852Z,5.40
2019-03-08T18:54:59.621Z,5.40
2019-03-08T19:00:25.247Z,5.30
2019-03-08T19:05:49.385Z,5.40
2019-03-08T19:11:16.630Z,5.30
2019-03-08T19:16:51.801Z,5.20
2019-03-08T19:22:26.367Z,5.20
2019-03-08T19:27:42.424Z,5.20
2019-03-08T19:33:18.486Z,5.20
2019-03-08T19:38:56.376Z,5.20
2019-03-08T19:44:40.904Z,5.20
2019-03-08T19:50:10.004Z,5.10
2019-03-08T19:55:21.608Z,5.10
2019-03-08T20:01:06.568Z,5.10
2019-03-08T20:06:32.598Z,5.10
2019-03-08T20:12:13.907Z,5.00
2019-03-08T20:17:32.520Z,5.00
2019-03-08T20:23:01.278Z,4.90
2019-03-08T20:28:39.653Z,5.00
2019-03-08T20:34:05.801Z,5.10
2019-03-08T20:39:37.748Z,5.10
2019-03-08T20:44:56.865Z,5.10
2019-03-08T20:50:08.702Z,5.10
2019-03-08T20:55:16.361Z,5.10
2019-03-08T21:00:24.506Z,5.10
2019-03-08T21:05:31.921Z,5.10
2019-03-08T21:10:39.054Z,5.00
2019-03-08T21:15:46.187Z,4.90
2019-03-08T21:20:53.571Z,4.80
2019-03-08T21:26:00.944Z,4.90
2019-03-08T21:31:09.123Z,4.80
2019-03-08T21:36:16.984Z,4.80
2019-03-08T21:41:24.115Z,4.70
2019-03-08T21:46:31.364Z,4.60
2019-03-08T21:51:38.574Z,4.60
2019-03-08T21:56:48.351Z,4.60
2019-03-08T22:01:55.660Z,4.50
2019-03-08T22:07:02.831Z,4.40
2019-03-08T22:12:10.442Z,4.40
2019-03-08T22:17:17.664Z,4.40
2019-03-08T22:22:24.952Z,4.40
2019-03-08T22:27:32.616Z,4.30
2019-03-08T22:32:39.742Z,4.40
2019-03-08T22:37:47.563Z,4.40
2019-03-08T22:42:54.811Z,4.40
2019-03-08T22:48:02.348Z,4.40
2019-03-08T22:53:11.023Z,4.40
2019-03-08T22:58:18.176Z,4.40
2019-03-08T23:03:25.786Z,4.30
2019-03-08T23:08:32.976Z,4.30
2019-03-08T23:13:40.123Z,4.30
2019-03-08T23:18:48.263Z,4.40
2019-03-08T23:23:55.501Z,4.40
2019-03-08T23:29:07.580Z,4.40
2019-03-08T23:34:14.982Z,4.40
2019-03-08T23:39:22.189Z,4.50
2019-03-08T23:44:29.836Z,4.50
2019-03-08T23:49:37.258Z,4.50
2019-03-08T23:54:44.428Z,4.40
2019-03-08T23:59:52.170Z,4.40
